sensor_id;sensor_type;location;lat;lon;timestamp;P1;durP1;ratioP1;P2;durP2;ratioP2
49860;SDS011;35761;48.826;9.238;2023-07-28T00:01:55;6.13;;;4.05;;
49860;SDS011;35761;48.826;9.238;2023-07-28T00:04:20;7.95;;;4.15;;
49860;SDS011;35761;48.826;9.238;2023-07-28T00:06:46;6.22;;;3.90;;
49860;SDS011;35761;48.826;9.238;2023-07-28T00:09:11;7.65;;;4.35;;
49860;SDS011;35761;48.826;9.238;2023-07-28T00:11:37;7.65;;;4.38;;
49860;SDS011;35761;48.826;9.238;2023-07-28T00:14:02;7.32;;;4.30;;
49860;SDS011;35761;48.826;9.238;2023-07-28T00:16:28;8.15;;;4.05;;
49860;SDS011;35761;48.826;9.238;2023-07-28T00:18:53;5.43;;;3.63;;
49860;SDS011;35761;48.826;9.238;2023-07-28T00:21:19;6.13;;;3.50;;
49860;SDS011;35761;48.826;9.238;2023-07-28T00:23:44;7.63;;;3.92;;
49860;SDS011;35761;48.826;9.238;2023-07-28T00:26:10;9.27;;;4.03;;
49860;SDS011;35761;48.826;9.238;2023-07-28T00:28:35;7.10;;;4.32;;
49860;SDS011;35761;48.826;9.238;2023-07-28T00:31:01;9.05;;;4.07;;
49860;SDS011;35761;48.826;9.238;2023-07-28T00:33:26;6.50;;;3.72;;
49860;SDS011;35761;48.826;9.238;2023-07-28T00:35:51;15.07;;;4.80;;
49860;SDS011;35761;48.826;9.238;2023-07-28T00:38:17;6.00;;;3.80;;
49860;SDS011;35761;48.826;9.238;2023-07-28T00:40:42;9.93;;;3.97;;
49860;SDS011;35761;48.826;9.238;2023-07-28T00:43:08;6.25;;;3.33;;
49860;SDS011;35761;48.826;9.238;2023-07-28T00:45:33;9.60;;;4.47;;
49860;SDS011;35761;48.826;9.238;2023-07-28T00:47:59;8.85;;;3.58;;
49860;SDS011;35761;48.826;9.238;2023-07-28T00:50:25;8.25;;;3.97;;
49860;SDS011;35761;48.826;9.238;2023-07-28T00:52:51;6.53;;;3.70;;
49860;SDS011;35761;48.826;9.238;2023-07-28T00:55:17;10.30;;;4.30;;
49860;SDS011;35761;48.826;9.238;2023-07-28T00:57:43;9.25;;;4.20;;
49860;SDS011;35761;48.826;9.238;2023-07-28T01:00:09;11.52;;;4.13;;
49860;SDS011;35761;48.826;9.238;2023-07-28T01:02:36;7.47;;;4.25;;
49860;SDS011;35761;48.826;9.238;2023-07-28T01:05:02;14.02;;;4.45;;
49860;SDS011;35761;48.826;9.238;2023-07-28T01:07:47;8.70;;;3.88;;
49860;SDS011;35761;48.826;9.238;2023-07-28T01:10:28;6.50;;;3.95;;
49860;SDS011;35761;48.826;9.238;2023-07-28T01:12:55;9.80;;;4.47;;
49860;SDS011;35761;48.826;9.238;2023-07-28T01:15:21;8.40;;;3.83;;
49860;SDS011;35761;48.826;9.238;2023-07-28T01:17:46;11.88;;;4.15;;
49860;SDS011;35761;48.826;9.238;2023-07-28T01:20:12;9.75;;;4.55;;
49860;SDS011;35761;48.826;9.238;2023-07-28T01:27:58;6.72;;;3.72;;
49860;SDS011;35761;48.826;9.238;2023-07-28T01:30:24;10.32;;;4.18;;
49860;SDS011;35761;48.826;9.238;2023-07-28T01:32:53;7.22;;;3.78;;
49860;SDS011;35761;48.826;9.238;2023-07-28T01:35:19;5.28;;;3.28;;
49860;SDS011;35761;48.826;9.238;2023-07-28T01:37:45;8.02;;;3.88;;
49860;SDS011;35761;48.826;9.238;2023-07-28T01:40:16;10.48;;;3.40;;
49860;SDS011;35761;48.826;9.238;2023-07-28T01:42:42;4.40;;;2.83;;
49860;SDS011;35761;48.826;9.238;2023-07-28T01:45:08;7.82;;;3.78;;
49860;SDS011;35761;48.826;9.238;2023-07-28T01:47:33;9.93;;;3.83;;
49860;SDS011;35761;48.826;9.238;2023-07-28T01:49:59;6.25;;;3.40;;
49860;SDS011;35761;48.826;9.238;2023-07-28T01:52:24;9.93;;;3.90;;
49860;SDS011;35761;48.826;9.238;2023-07-28T01:54:50;9.45;;;3.60;;
49860;SDS011;35761;48.826;9.238;2023-07-28T01:57:15;6.85;;;3.80;;
49860;SDS011;35761;48.826;9.238;2023-07-28T01:59:41;4.80;;;2.92;;
49860;SDS011;35761;48.826;9.238;2023-07-28T02:02:06;5.50;;;3.13;;
49860;SDS011;35761;48.826;9.238;2023-07-28T02:04:32;4.72;;;3.28;;
49860;SDS011;35761;48.826;9.238;2023-07-28T02:06:57;9.23;;;3.20;;
49860;SDS011;35761;48.826;9.238;2023-07-28T02:09:23;5.45;;;3.40;;
49860;SDS011;35761;48.826;9.238;2023-07-28T02:11:48;7.28;;;3.75;;
49860;SDS011;35761;48.826;9.238;2023-07-28T02:14:14;6.43;;;3.20;;
49860;SDS011;35761;48.826;9.238;2023-07-28T02:16:39;6.68;;;3.35;;
49860;SDS011;35761;48.826;9.238;2023-07-28T02:19:05;7.32;;;3.58;;
49860;SDS011;35761;48.826;9.238;2023-07-28T02:21:30;8.05;;;3.53;;
49860;SDS011;35761;48.826;9.238;2023-07-28T02:23:56;6.38;;;3.40;;
49860;SDS011;35761;48.826;9.238;2023-07-28T02:26:21;7.90;;;3.35;;
49860;SDS011;35761;48.826;9.238;2023-07-28T02:28:47;9.95;;;4.18;;
49860;SDS011;35761;48.826;9.238;2023-07-28T02:31:13;9.05;;;4.28;;
49860;SDS011;35761;48.826;9.238;2023-07-28T02:33:39;7.40;;;3.80;;
49860;SDS011;35761;48.826;9.238;2023-07-28T02:36:05;9.60;;;3.20;;
49860;SDS011;35761;48.826;9.238;2023-07-28T02:38:30;6.72;;;2.88;;
49860;SDS011;35761;48.826;9.238;2023-07-28T02:40:56;7.93;;;3.60;;
49860;SDS011;35761;48.826;9.238;2023-07-28T02:43:21;10.60;;;3.15;;
49860;SDS011;35761;48.826;9.238;2023-07-28T02:45:53;6.25;;;2.90;;
49860;SDS011;35761;48.826;9.238;2023-07-28T02:48:20;5.68;;;3.13;;
49860;SDS011;35761;48.826;9.238;2023-07-28T02:50:47;5.15;;;3.10;;
49860;SDS011;35761;48.826;9.238;2023-07-28T02:53:13;8.75;;;3.03;;
49860;SDS011;35761;48.826;9.238;2023-07-28T02:55:42;5.82;;;3.45;;
49860;SDS011;35761;48.826;9.238;2023-07-28T02:58:11;5.45;;;2.90;;
49860;SDS011;35761;48.826;9.238;2023-07-28T03:00:37;7.38;;;3.10;;
49860;SDS011;35761;48.826;9.238;2023-07-28T03:03:04;5.65;;;3.03;;
49860;SDS011;35761;48.826;9.238;2023-07-28T03:05:30;6.93;;;2.60;;
49860;SDS011;35761;48.826;9.238;2023-07-28T03:08:20;4.90;;;2.72;;
49860;SDS011;35761;48.826;9.238;2023-07-28T03:10:46;4.55;;;2.78;;
49860;SDS011;35761;48.826;9.238;2023-07-28T03:13:11;5.28;;;3.13;;
49860;SDS011;35761;48.826;9.238;2023-07-28T03:15:37;4.55;;;2.50;;
49860;SDS011;35761;48.826;9.238;2023-07-28T03:18:03;8.00;;;2.92;;
49860;SDS011;35761;48.826;9.238;2023-07-28T03:20:28;6.10;;;2.50;;
49860;SDS011;35761;48.826;9.238;2023-07-28T03:22:54;6.15;;;2.75;;
49860;SDS011;35761;48.826;9.238;2023-07-28T03:25:20;6.65;;;2.78;;
49860;SDS011;35761;48.826;9.238;2023-07-28T03:27:46;7.40;;;2.95;;
49860;SDS011;35761;48.826;9.238;2023-07-28T03:30:11;5.10;;;2.50;;
49860;SDS011;35761;48.826;9.238;2023-07-28T03:32:37;5.35;;;2.75;;
49860;SDS011;35761;48.826;9.238;2023-07-28T03:35:02;3.92;;;2.40;;
49860;SDS011;35761;48.826;9.238;2023-07-28T03:37:33;5.28;;;2.63;;
49860;SDS011;35761;48.826;9.238;2023-07-28T03:39:59;5.85;;;2.72;;
49860;SDS011;35761;48.826;9.238;2023-07-28T03:42:34;6.00;;;2.67;;
49860;SDS011;35761;48.826;9.238;2023-07-28T03:44:59;5.60;;;2.83;;
49860;SDS011;35761;48.826;9.238;2023-07-28T03:47:25;5.15;;;2.20;;
49860;SDS011;35761;48.826;9.238;2023-07-28T03:49:50;5.30;;;2.40;;
49860;SDS011;35761;48.826;9.238;2023-07-28T03:52:15;4.95;;;2.42;;
49860;SDS011;35761;48.826;9.238;2023-07-28T03:54:41;4.20;;;2.50;;
49860;SDS011;35761;48.826;9.238;2023-07-28T03:57:08;4.88;;;3.08;;
49860;SDS011;35761;48.826;9.238;2023-07-28T03:59:33;5.53;;;2.97;;
49860;SDS011;35761;48.826;9.238;2023-07-28T04:01:59;3.90;;;2.53;;
49860;SDS011;35761;48.826;9.238;2023-07-28T04:04:24;4.28;;;2.90;;
49860;SDS011;35761;48.826;9.238;2023-07-28T04:06:50;6.28;;;2.90;;
49860;SDS011;35761;48.826;9.238;2023-07-28T04:09:16;9.40;;;3.65;;
49860;SDS011;35761;48.826;9.238;2023-07-28T04:11:42;5.07;;;2.72;;
49860;SDS011;35761;48.826;9.238;2023-07-28T04:14:07;6.75;;;2.90;;
49860;SDS011;35761;48.826;9.238;2023-07-28T04:16:33;5.63;;;2.78;;
49860;SDS011;35761;48.826;9.238;2023-07-28T04:18:58;4.43;;;2.60;;
49860;SDS011;35761;48.826;9.238;2023-07-28T04:21:24;5.75;;;2.78;;
49860;SDS011;35761;48.826;9.238;2023-07-28T04:23:50;4.97;;;2.72;;
49860;SDS011;35761;48.826;9.238;2023-07-28T04:26:16;5.95;;;2.42;;
49860;SDS011;35761;48.826;9.238;2023-07-28T04:28:42;3.83;;;2.60;;
49860;SDS011;35761;48.826;9.238;2023-07-28T04:31:07;7.00;;;3.88;;
49860;SDS011;35761;48.826;9.238;2023-07-28T04:33:49;7.57;;;4.47;;
49860;SDS011;35761;48.826;9.238;2023-07-28T04:36:14;7.65;;;2.90;;
49860;SDS011;35761;48.826;9.238;2023-07-28T04:38:40;4.32;;;2.60;;
49860;SDS011;35761;48.826;9.238;2023-07-28T04:41:05;5.90;;;2.65;;
49860;SDS011;35761;48.826;9.238;2023-07-28T04:43:50;6.25;;;2.88;;
49860;SDS011;35761;48.826;9.238;2023-07-28T04:46:16;3.72;;;2.50;;
49860;SDS011;35761;48.826;9.238;2023-07-28T04:48:45;10.10;;;2.70;;
49860;SDS011;35761;48.826;9.238;2023-07-28T04:51:31;7.78;;;2.63;;
49860;SDS011;35761;48.826;9.238;2023-07-28T04:56:41;5.20;;;2.70;;
49860;SDS011;35761;48.826;9.238;2023-07-28T04:59:07;10.75;;;2.58;;
49860;SDS011;35761;48.826;9.238;2023-07-28T05:01:33;8.10;;;3.08;;
49860;SDS011;35761;48.826;9.238;2023-07-28T05:03:58;3.55;;;2.50;;
49860;SDS011;35761;48.826;9.238;2023-07-28T05:06:26;5.28;;;2.97;;
49860;SDS011;35761;48.826;9.238;2023-07-28T05:08:52;8.57;;;3.05;;
49860;SDS011;35761;48.826;9.238;2023-07-28T05:11:24;4.65;;;2.95;;
49860;SDS011;35761;48.826;9.238;2023-07-28T05:13:49;4.20;;;2.58;;
49860;SDS011;35761;48.826;9.238;2023-07-28T05:16:15;5.47;;;3.20;;
49860;SDS011;35761;48.826;9.238;2023-07-28T05:19:16;6.78;;;2.70;;
49860;SDS011;35761;48.826;9.238;2023-07-28T05:22:07;6.47;;;3.10;;
49860;SDS011;35761;48.826;9.238;2023-07-28T05:24:46;7.28;;;3.40;;
49860;SDS011;35761;48.826;9.238;2023-07-28T05:27:12;5.65;;;3.40;;
49860;SDS011;35761;48.826;9.238;2023-07-28T05:29:39;6.35;;;3.13;;
49860;SDS011;35761;48.826;9.238;2023-07-28T05:32:06;10.02;;;4.20;;
49860;SDS011;35761;48.826;9.238;2023-07-28T05:34:57;7.35;;;3.58;;
49860;SDS011;35761;48.826;9.238;2023-07-28T05:37:22;10.43;;;3.60;;
49860;SDS011;35761;48.826;9.238;2023-07-28T05:39:48;6.40;;;4.00;;
49860;SDS011;35761;48.826;9.238;2023-07-28T05:42:13;6.68;;;3.92;;
49860;SDS011;35761;48.826;9.238;2023-07-28T05:44:39;14.02;;;4.45;;
49860;SDS011;35761;48.826;9.238;2023-07-28T05:47:04;7.72;;;4.22;;
49860;SDS011;35761;48.826;9.238;2023-07-28T05:49:30;6.63;;;4.05;;
49860;SDS011;35761;48.826;9.238;2023-07-28T05:51:57;14.90;;;3.80;;
49860;SDS011;35761;48.826;9.238;2023-07-28T05:54:23;7.50;;;4.20;;
49860;SDS011;35761;48.826;9.238;2023-07-28T05:56:48;9.30;;;4.80;;
49860;SDS011;35761;48.826;9.238;2023-07-28T05:59:14;7.25;;;4.75;;
49860;SDS011;35761;48.826;9.238;2023-07-28T06:01:39;10.88;;;6.15;;
49860;SDS011;35761;48.826;9.238;2023-07-28T06:04:13;12.18;;;5.85;;
49860;SDS011;35761;48.826;9.238;2023-07-28T06:06:44;9.55;;;6.15;;
49860;SDS011;35761;48.826;9.238;2023-07-28T06:09:12;21.92;;;8.27;;
49860;SDS011;35761;48.826;9.238;2023-07-28T06:11:38;17.55;;;7.45;;
49860;SDS011;35761;48.826;9.238;2023-07-28T06:14:03;15.38;;;6.80;;
49860;SDS011;35761;48.826;9.238;2023-07-28T06:16:32;18.27;;;6.93;;
49860;SDS011;35761;48.826;9.238;2023-07-28T06:18:57;17.85;;;7.35;;
49860;SDS011;35761;48.826;9.238;2023-07-28T06:21:23;19.02;;;7.22;;
49860;SDS011;35761;48.826;9.238;2023-07-28T06:23:48;16.50;;;7.85;;
49860;SDS011;35761;48.826;9.238;2023-07-28T06:26:14;13.13;;;6.70;;
49860;SDS011;35761;48.826;9.238;2023-07-28T06:28:40;18.48;;;7.47;;
49860;SDS011;35761;48.826;9.238;2023-07-28T06:31:05;16.17;;;7.15;;
49860;SDS011;35761;48.826;9.238;2023-07-28T06:33:31;15.95;;;7.45;;
49860;SDS011;35761;48.826;9.238;2023-07-28T06:35:57;13.27;;;6.28;;
49860;SDS011;35761;48.826;9.238;2023-07-28T06:38:22;14.25;;;7.57;;
49860;SDS011;35761;48.826;9.238;2023-07-28T06:40:48;14.50;;;7.22;;
49860;SDS011;35761;48.826;9.238;2023-07-28T06:43:13;20.42;;;7.78;;
49860;SDS011;35761;48.826;9.238;2023-07-28T06:45:40;12.95;;;6.53;;
49860;SDS011;35761;48.826;9.238;2023-07-28T06:48:06;10.73;;;6.72;;
49860;SDS011;35761;48.826;9.238;2023-07-28T06:50:32;21.58;;;7.10;;
49860;SDS011;35761;48.826;9.238;2023-07-28T06:52:58;19.35;;;8.50;;
49860;SDS011;35761;48.826;9.238;2023-07-28T06:55:25;14.00;;;7.03;;
49860;SDS011;35761;48.826;9.238;2023-07-28T06:57:51;14.38;;;6.93;;
49860;SDS011;35761;48.826;9.238;2023-07-28T07:00:17;15.57;;;7.70;;
49860;SDS011;35761;48.826;9.238;2023-07-28T07:02:45;14.30;;;7.18;;
49860;SDS011;35761;48.826;9.238;2023-07-28T07:05:11;18.05;;;7.40;;
49860;SDS011;35761;48.826;9.238;2023-07-28T07:07:36;12.82;;;7.07;;
49860;SDS011;35761;48.826;9.238;2023-07-28T07:10:04;16.33;;;7.35;;
49860;SDS011;35761;48.826;9.238;2023-07-28T07:12:31;16.38;;;6.72;;
49860;SDS011;35761;48.826;9.238;2023-07-28T07:14:57;10.70;;;6.00;;
49860;SDS011;35761;48.826;9.238;2023-07-28T07:17:22;17.63;;;6.78;;
49860;SDS011;35761;48.826;9.238;2023-07-28T07:19:48;11.57;;;5.60;;
49860;SDS011;35761;48.826;9.238;2023-07-28T07:22:14;22.02;;;6.15;;
49860;SDS011;35761;48.826;9.238;2023-07-28T07:24:39;9.70;;;5.68;;
49860;SDS011;35761;48.826;9.238;2023-07-28T07:27:05;20.52;;;6.72;;
49860;SDS011;35761;48.826;9.238;2023-07-28T07:29:30;15.77;;;5.80;;
49860;SDS011;35761;48.826;9.238;2023-07-28T07:31:56;14.27;;;6.05;;
49860;SDS011;35761;48.826;9.238;2023-07-28T07:34:22;12.50;;;6.43;;
49860;SDS011;35761;48.826;9.238;2023-07-28T07:36:48;14.52;;;6.53;;
49860;SDS011;35761;48.826;9.238;2023-07-28T07:39:14;16.35;;;5.93;;
49860;SDS011;35761;48.826;9.238;2023-07-28T07:41:40;14.65;;;6.20;;
49860;SDS011;35761;48.826;9.238;2023-07-28T07:44:05;15.70;;;6.28;;
49860;SDS011;35761;48.826;9.238;2023-07-28T07:46:30;10.48;;;5.40;;
49860;SDS011;35761;48.826;9.238;2023-07-28T07:48:56;9.68;;;5.25;;
49860;SDS011;35761;48.826;9.238;2023-07-28T07:51:21;10.55;;;5.55;;
49860;SDS011;35761;48.826;9.238;2023-07-28T07:53:47;12.05;;;5.82;;
49860;SDS011;35761;48.826;9.238;2023-07-28T07:56:13;8.43;;;5.35;;
49860;SDS011;35761;48.826;9.238;2023-07-28T07:58:38;7.95;;;4.60;;
49860;SDS011;35761;48.826;9.238;2023-07-28T08:01:04;8.50;;;4.95;;
49860;SDS011;35761;48.826;9.238;2023-07-28T08:03:29;14.40;;;5.38;;
49860;SDS011;35761;48.826;9.238;2023-07-28T08:05:57;12.13;;;5.53;;
49860;SDS011;35761;48.826;9.238;2023-07-28T08:08:23;17.02;;;12.35;;
49860;SDS011;35761;48.826;9.238;2023-07-28T08:10:51;13.48;;;8.13;;
49860;SDS011;35761;48.826;9.238;2023-07-28T08:13:17;8.70;;;4.40;;
49860;SDS011;35761;48.826;9.238;2023-07-28T08:15:43;9.15;;;4.82;;
49860;SDS011;35761;48.826;9.238;2023-07-28T08:18:10;9.82;;;5.35;;
49860;SDS011;35761;48.826;9.238;2023-07-28T08:20:36;16.42;;;5.63;;
49860;SDS011;35761;48.826;9.238;2023-07-28T08:23:01;11.48;;;7.03;;
49860;SDS011;35761;48.826;9.238;2023-07-28T08:25:27;16.85;;;11.23;;
49860;SDS011;35761;48.826;9.238;2023-07-28T08:27:52;11.10;;;5.43;;
49860;SDS011;35761;48.826;9.238;2023-07-28T08:30:18;17.17;;;5.30;;
49860;SDS011;35761;48.826;9.238;2023-07-28T08:32:43;9.55;;;4.88;;
49860;SDS011;35761;48.826;9.238;2023-07-28T08:35:09;11.40;;;5.60;;
49860;SDS011;35761;48.826;9.238;2023-07-28T08:37:35;8.13;;;4.93;;
49860;SDS011;35761;48.826;9.238;2023-07-28T08:40:01;9.63;;;4.80;;
49860;SDS011;35761;48.826;9.238;2023-07-28T08:42:30;14.90;;;6.05;;
49860;SDS011;35761;48.826;9.238;2023-07-28T08:44:57;17.75;;;6.57;;
49860;SDS011;35761;48.826;9.238;2023-07-28T08:47:23;7.13;;;4.28;;
49860;SDS011;35761;48.826;9.238;2023-07-28T08:49:49;11.82;;;5.45;;
49860;SDS011;35761;48.826;9.238;2023-07-28T08:52:15;9.15;;;5.82;;
49860;SDS011;35761;48.826;9.238;2023-07-28T08:54:42;14.77;;;6.75;;
49860;SDS011;35761;48.826;9.238;2023-07-28T08:57:08;12.85;;;6.38;;
49860;SDS011;35761;48.826;9.238;2023-07-28T08:59:35;12.30;;;5.85;;
49860;SDS011;35761;48.826;9.238;2023-07-28T09:02:01;13.48;;;6.18;;
49860;SDS011;35761;48.826;9.238;2023-07-28T09:04:27;12.40;;;5.97;;
49860;SDS011;35761;48.826;9.238;2023-07-28T09:06:53;9.80;;;5.70;;
49860;SDS011;35761;48.826;9.238;2023-07-28T09:09:20;8.18;;;4.80;;
49860;SDS011;35761;48.826;9.238;2023-07-28T09:11:48;9.25;;;5.53;;
49860;SDS011;35761;48.826;9.238;2023-07-28T09:14:15;13.10;;;6.32;;
49860;SDS011;35761;48.826;9.238;2023-07-28T09:16:42;13.45;;;5.38;;
49860;SDS011;35761;48.826;9.238;2023-07-28T09:19:08;11.32;;;5.40;;
49860;SDS011;35761;48.826;9.238;2023-07-28T09:21:34;8.00;;;5.05;;
49860;SDS011;35761;48.826;9.238;2023-07-28T09:24:00;13.13;;;5.47;;
49860;SDS011;35761;48.826;9.238;2023-07-28T09:26:39;9.00;;;5.32;;
49860;SDS011;35761;48.826;9.238;2023-07-28T09:29:18;9.10;;;4.80;;
49860;SDS011;35761;48.826;9.238;2023-07-28T09:31:45;7.20;;;4.60;;
49860;SDS011;35761;48.826;9.238;2023-07-28T09:34:24;8.15;;;4.93;;
49860;SDS011;35761;48.826;9.238;2023-07-28T09:36:52;8.57;;;5.28;;
49860;SDS011;35761;48.826;9.238;2023-07-28T09:39:19;9.65;;;4.45;;
49860;SDS011;35761;48.826;9.238;2023-07-28T09:41:46;10.00;;;3.85;;
49860;SDS011;35761;48.826;9.238;2023-07-28T09:44:11;9.80;;;4.55;;
49860;SDS011;35761;48.826;9.238;2023-07-28T09:46:37;5.93;;;3.95;;
49860;SDS011;35761;48.826;9.238;2023-07-28T09:49:21;4.50;;;3.40;;
49860;SDS011;35761;48.826;9.238;2023-07-28T09:51:50;5.70;;;3.15;;
49860;SDS011;35761;48.826;9.238;2023-07-28T09:54:25;6.57;;;3.53;;
49860;SDS011;35761;48.826;9.238;2023-07-28T09:56:58;6.00;;;3.30;;
49860;SDS011;35761;48.826;9.238;2023-07-28T09:59:25;7.43;;;3.90;;
49860;SDS011;35761;48.826;9.238;2023-07-28T10:01:54;4.72;;;3.20;;
49860;SDS011;35761;48.826;9.238;2023-07-28T10:04:22;5.80;;;2.97;;
49860;SDS011;35761;48.826;9.238;2023-07-28T10:06:47;6.35;;;2.72;;
49860;SDS011;35761;48.826;9.238;2023-07-28T10:09:13;6.13;;;2.45;;
49860;SDS011;35761;48.826;9.238;2023-07-28T10:11:41;4.78;;;2.55;;
49860;SDS011;35761;48.826;9.238;2023-07-28T10:14:08;6.70;;;2.53;;
49860;SDS011;35761;48.826;9.238;2023-07-28T10:16:39;3.38;;;2.08;;
49860;SDS011;35761;48.826;9.238;2023-07-28T10:19:05;6.95;;;2.53;;
49860;SDS011;35761;48.826;9.238;2023-07-28T10:21:31;5.63;;;2.53;;
49860;SDS011;35761;48.826;9.238;2023-07-28T10:23:59;5.70;;;2.33;;
49860;SDS011;35761;48.826;9.238;2023-07-28T10:26:35;9.23;;;2.50;;
49860;SDS011;35761;48.826;9.238;2023-07-28T10:29:08;3.70;;;2.08;;
49860;SDS011;35761;48.826;9.238;2023-07-28T10:31:37;4.82;;;2.15;;
49860;SDS011;35761;48.826;9.238;2023-07-28T10:34:15;3.53;;;1.85;;
49860;SDS011;35761;48.826;9.238;2023-07-28T10:36:43;5.00;;;2.15;;
49860;SDS011;35761;48.826;9.238;2023-07-28T10:41:38;4.65;;;2.28;;
49860;SDS011;35761;48.826;9.238;2023-07-28T10:44:03;4.38;;;2.30;;
49860;SDS011;35761;48.826;9.238;2023-07-28T10:46:29;5.72;;;2.40;;
49860;SDS011;35761;48.826;9.238;2023-07-28T10:48:54;4.40;;;2.17;;
49860;SDS011;35761;48.826;9.238;2023-07-28T10:51:23;3.47;;;2.20;;
49860;SDS011;35761;48.826;9.238;2023-07-28T10:53:56;5.57;;;2.75;;
49860;SDS011;35761;48.826;9.238;2023-07-28T10:56:22;6.38;;;4.68;;
49860;SDS011;35761;48.826;9.238;2023-07-28T10:58:58;7.03;;;2.25;;
49860;SDS011;35761;48.826;9.238;2023-07-28T11:01:33;4.07;;;2.75;;
49860;SDS011;35761;48.826;9.238;2023-07-28T11:06:42;5.93;;;2.40;;
49860;SDS011;35761;48.826;9.238;2023-07-28T11:09:09;3.97;;;2.40;;
49860;SDS011;35761;48.826;9.238;2023-07-28T11:11:35;4.60;;;2.40;;
49860;SDS011;35761;48.826;9.238;2023-07-28T11:14:01;6.75;;;2.35;;
49860;SDS011;35761;48.826;9.238;2023-07-28T11:16:28;7.93;;;2.60;;
49860;SDS011;35761;48.826;9.238;2023-07-28T11:18:55;6.00;;;2.22;;
49860;SDS011;35761;48.826;9.238;2023-07-28T11:21:22;3.42;;;2.15;;
49860;SDS011;35761;48.826;9.238;2023-07-28T11:23:48;4.20;;;2.70;;
49860;SDS011;35761;48.826;9.238;2023-07-28T11:26:15;5.28;;;2.47;;
49860;SDS011;35761;48.826;9.238;2023-07-28T11:28:43;4.30;;;2.25;;
49860;SDS011;35761;48.826;9.238;2023-07-28T11:31:08;8.40;;;2.75;;
49860;SDS011;35761;48.826;9.238;2023-07-28T11:33:34;3.53;;;2.30;;
49860;SDS011;35761;48.826;9.238;2023-07-28T11:36:00;11.95;;;2.33;;
49860;SDS011;35761;48.826;9.238;2023-07-28T11:38:26;4.85;;;2.10;;
49860;SDS011;35761;48.826;9.238;2023-07-28T11:40:52;4.03;;;2.15;;
49860;SDS011;35761;48.826;9.238;2023-07-28T11:43:18;5.85;;;2.10;;
49860;SDS011;35761;48.826;9.238;2023-07-28T11:45:44;5.05;;;1.80;;
49860;SDS011;35761;48.826;9.238;2023-07-28T11:48:09;3.13;;;1.70;;
49860;SDS011;35761;48.826;9.238;2023-07-28T11:50:40;2.80;;;1.70;;
49860;SDS011;35761;48.826;9.238;2023-07-28T11:53:06;7.88;;;2.13;;
49860;SDS011;35761;48.826;9.238;2023-07-28T11:55:34;3.55;;;1.67;;
49860;SDS011;35761;48.826;9.238;2023-07-28T11:58:00;4.18;;;1.58;;
49860;SDS011;35761;48.826;9.238;2023-07-28T12:00:36;3.92;;;2.80;;
49860;SDS011;35761;48.826;9.238;2023-07-28T12:03:06;4.53;;;1.70;;
49860;SDS011;35761;48.826;9.238;2023-07-28T12:05:41;3.83;;;1.40;;
49860;SDS011;35761;48.826;9.238;2023-07-28T12:08:08;5.53;;;2.72;;
49860;SDS011;35761;48.826;9.238;2023-07-28T12:10:34;5.45;;;1.50;;
49860;SDS011;35761;48.826;9.238;2023-07-28T12:13:04;2.95;;;1.90;;
49860;SDS011;35761;48.826;9.238;2023-07-28T12:15:31;3.78;;;1.70;;
49860;SDS011;35761;48.826;9.238;2023-07-28T12:20:32;4.82;;;1.58;;
49860;SDS011;35761;48.826;9.238;2023-07-28T12:22:58;2.03;;;1.30;;
49860;SDS011;35761;48.826;9.238;2023-07-28T12:25:28;2.08;;;1.40;;
49860;SDS011;35761;48.826;9.238;2023-07-28T12:27:54;4.63;;;1.55;;
49860;SDS011;35761;48.826;9.238;2023-07-28T12:30:20;2.85;;;1.88;;
49860;SDS011;35761;48.826;9.238;2023-07-28T12:32:46;3.17;;;1.80;;
49860;SDS011;35761;48.826;9.238;2023-07-28T12:35:12;2.05;;;1.55;;
49860;SDS011;35761;48.826;9.238;2023-07-28T12:37:38;2.88;;;1.60;;
49860;SDS011;35761;48.826;9.238;2023-07-28T12:40:04;6.90;;;1.75;;
49860;SDS011;35761;48.826;9.238;2023-07-28T12:42:31;2.78;;;1.90;;
49860;SDS011;35761;48.826;9.238;2023-07-28T12:44:57;1.85;;;1.50;;
49860;SDS011;35761;48.826;9.238;2023-07-28T12:47:22;3.05;;;1.90;;
49860;SDS011;35761;48.826;9.238;2023-07-28T12:49:48;2.60;;;1.42;;
49860;SDS011;35761;48.826;9.238;2023-07-28T12:52:13;2.80;;;1.60;;
49860;SDS011;35761;48.826;9.238;2023-07-28T12:54:40;3.10;;;1.83;;
49860;SDS011;35761;48.826;9.238;2023-07-28T12:57:08;4.03;;;1.90;;
49860;SDS011;35761;48.826;9.238;2023-07-28T12:59:37;2.97;;;1.90;;
49860;SDS011;35761;48.826;9.238;2023-07-28T13:02:03;2.90;;;1.98;;
49860;SDS011;35761;48.826;9.238;2023-07-28T13:04:28;4.82;;;2.20;;
49860;SDS011;35761;48.826;9.238;2023-07-28T13:06:54;4.93;;;1.80;;
49860;SDS011;35761;48.826;9.238;2023-07-28T13:09:20;2.83;;;1.98;;
49860;SDS011;35761;48.826;9.238;2023-07-28T13:11:45;4.95;;;2.53;;
49860;SDS011;35761;48.826;9.238;2023-07-28T13:14:11;5.25;;;1.85;;
49860;SDS011;35761;48.826;9.238;2023-07-28T13:16:36;9.88;;;1.98;;
49860;SDS011;35761;48.826;9.238;2023-07-28T13:19:03;2.63;;;1.80;;
49860;SDS011;35761;48.826;9.238;2023-07-28T13:21:29;4.93;;;2.40;;
49860;SDS011;35761;48.826;9.238;2023-07-28T13:23:54;3.00;;;2.20;;
49860;SDS011;35761;48.826;9.238;2023-07-28T13:26:20;3.50;;;1.92;;
49860;SDS011;35761;48.826;9.238;2023-07-28T13:28:45;3.70;;;1.88;;
49860;SDS011;35761;48.826;9.238;2023-07-28T13:31:12;4.35;;;2.05;;
49860;SDS011;35761;48.826;9.238;2023-07-28T13:33:38;5.93;;;2.25;;
49860;SDS011;35761;48.826;9.238;2023-07-28T13:36:04;8.88;;;2.67;;
49860;SDS011;35761;48.826;9.238;2023-07-28T13:38:32;4.85;;;2.63;;
49860;SDS011;35761;48.826;9.238;2023-07-28T13:40:57;5.05;;;2.33;;
49860;SDS011;35761;48.826;9.238;2023-07-28T13:43:23;6.20;;;2.42;;
49860;SDS011;35761;48.826;9.238;2023-07-28T13:45:48;4.15;;;2.50;;
49860;SDS011;35761;48.826;9.238;2023-07-28T13:48:14;4.07;;;2.47;;
49860;SDS011;35761;48.826;9.238;2023-07-28T13:50:39;6.22;;;2.95;;
49860;SDS011;35761;48.826;9.238;2023-07-28T13:53:05;7.85;;;2.63;;
49860;SDS011;35761;48.826;9.238;2023-07-28T13:55:30;4.32;;;2.72;;
49860;SDS011;35761;48.826;9.238;2023-07-28T13:57:56;5.95;;;3.22;;
49860;SDS011;35761;48.826;9.238;2023-07-28T14:00:21;5.50;;;3.08;;
49860;SDS011;35761;48.826;9.238;2023-07-28T14:02:47;7.15;;;3.10;;
49860;SDS011;35761;48.826;9.238;2023-07-28T14:05:12;6.90;;;2.90;;
49860;SDS011;35761;48.826;9.238;2023-07-28T14:07:38;7.15;;;2.92;;
49860;SDS011;35761;48.826;9.238;2023-07-28T14:10:03;4.05;;;2.72;;
49860;SDS011;35761;48.826;9.238;2023-07-28T14:12:31;5.63;;;3.03;;
49860;SDS011;35761;48.826;9.238;2023-07-28T14:14:56;7.32;;;3.22;;
49860;SDS011;35761;48.826;9.238;2023-07-28T14:17:22;6.38;;;3.58;;
49860;SDS011;35761;48.826;9.238;2023-07-28T14:19:47;6.22;;;3.10;;
49860;SDS011;35761;48.826;9.238;2023-07-28T14:22:13;8.27;;;3.70;;
49860;SDS011;35761;48.826;9.238;2023-07-28T14:24:38;8.32;;;3.40;;
49860;SDS011;35761;48.826;9.238;2023-07-28T14:27:04;8.50;;;3.90;;
49860;SDS011;35761;48.826;9.238;2023-07-28T14:29:30;8.63;;;3.63;;
49860;SDS011;35761;48.826;9.238;2023-07-28T14:31:56;8.30;;;3.50;;
49860;SDS011;35761;48.826;9.238;2023-07-28T14:34:21;7.28;;;3.72;;
49860;SDS011;35761;48.826;9.238;2023-07-28T14:36:47;5.45;;;3.65;;
49860;SDS011;35761;48.826;9.238;2023-07-28T14:39:12;6.30;;;3.50;;
49860;SDS011;35761;48.826;9.238;2023-07-28T14:41:38;8.02;;;3.28;;
49860;SDS011;35761;48.826;9.238;2023-07-28T14:44:03;6.05;;;3.40;;
49860;SDS011;35761;48.826;9.238;2023-07-28T14:46:29;7.68;;;3.97;;
49860;SDS011;35761;48.826;9.238;2023-07-28T14:48:54;6.53;;;4.03;;
49860;SDS011;35761;48.826;9.238;2023-07-28T14:51:20;5.35;;;3.55;;
49860;SDS011;35761;48.826;9.238;2023-07-28T14:53:46;8.55;;;3.60;;
49860;SDS011;35761;48.826;9.238;2023-07-28T14:56:12;9.32;;;3.58;;
49860;SDS011;35761;48.826;9.238;2023-07-28T14:58:38;9.05;;;3.20;;
49860;SDS011;35761;48.826;9.238;2023-07-28T15:01:06;11.52;;;3.38;;